M I D A S
Marine Information and Data Acquisition System
Tripno 1069 of the Zeeleeuw from 2006-04-10 07:21:34 to 2006-04-10 13:24:46
Back to CruiseResearch ActivitiesStationsMapUnderway DataData graphs

EquipmentUnitsComment
TimeDGPSUTC
LatitudeDGPSDM.mWGS84
LongitudeDGPSDM.mWGS84
HeadingGyrodeg 
SOGDGPSknotsSpeed over ground
COGDGPSdegCourse over ground
DepthEcho soundermeters200 kHz
Missing or incorrect values are displayed as -999
Navigation data collected by the RV Zeeleeuw from 2006-04-10 07:21:20 to 2006-04-10 13:38:36
                                                                                    Next 1000 lines
Time Latitude Longitude Heading SOG COG Depth
2006-04-10 07:21:29 51°13.601 2°56.096 109.4 0.6 284 5.3
2006-04-10 07:21:34 51°13.601 2°56.093 109.1 1 279 5.3
2006-04-10 07:21:40 51°13.602 2°56.09 109.2 1.4 285 5.5
2006-04-10 07:21:44 51°13.602 2°56.087 109.8 1.7 285 6
2006-04-10 07:21:50 51°13.604 2°56.082 110.6 1.8 287 -999
2006-04-10 07:21:55 51°13.605 2°56.077 111.8 2.2 288 -999
2006-04-10 07:22:00 51°13.606 2°56.072 113 2.4 291 -999
2006-04-10 07:22:05 51°13.608 2°56.066 113.9 2.6 291 -999
2006-04-10 07:22:10 51°13.609 2°56.06 114.5 2.8 293 -999
2006-04-10 07:22:15 51°13.611 2°56.054 114.9 3.1 292 -999
2006-04-10 07:22:20 51°13.612 2°56.046 115.1 3.3 292 -999
2006-04-10 07:22:25 51°13.614 2°56.039 115.2 3.5 292 -999
2006-04-10 07:22:30 51°13.615 2°56.031 115.2 3.7 292 -999
2006-04-10 07:22:35 51°13.617 2°56.023 115 4 291 -999
2006-04-10 07:22:40 51°13.619 2°56.014 114.8 4.1 291 -999
2006-04-10 07:22:45 51°13.621 2°56.006 114.5 4.2 291 -999
2006-04-10 07:22:50 51°13.623 2°55.997 114.4 4.3 290 -999
2006-04-10 07:22:54 51°13.625 2°55.989 114.4 4.4 290 -999
2006-04-10 07:23:00 51°13.628 2°55.978 114.6 4.5 290 -999
2006-04-10 07:23:05 51°13.63 2°55.968 115.1 4.6 290 -999
2006-04-10 07:23:10 51°13.632 2°55.959 116.1 4.7 291 -999
2006-04-10 07:23:14 51°13.634 2°55.951 117.1 4.8 292 -999
2006-04-10 07:23:20 51°13.638 2°55.939 118.3 4.8 293 -999
2006-04-10 07:23:25 51°13.64 2°55.93 119.7 4.8 294 -999
2006-04-10 07:23:30 51°13.643 2°55.921 121.1 4.7 295 -999
2006-04-10 07:23:35 51°13.646 2°55.912 122.5 4.6 296 -999
2006-04-10 07:23:40 51°13.649 2°55.903 123.8 4.4 298 -999
2006-04-10 07:23:45 51°13.652 2°55.895 125.2 4.4 298 -999
2006-04-10 07:23:50 51°13.655 2°55.887 126.5 4.2 299 -999
2006-04-10 07:23:55 51°13.658 2°55.879 127.6 4.2 301 -999
2006-04-10 07:24:00 51°13.66 2°55.871 128.4 4.2 301 -999
2006-04-10 07:24:05 51°13.664 2°55.863 129.1 4.1 302 -999
2006-04-10 07:24:10 51°13.667 2°55.855 129.8 4.3 302 -999
2006-04-10 07:24:15 51°13.67 2°55.847 130.5 4.4 304 -999
2006-04-10 07:24:20 51°13.674 2°55.839 131.2 4.4 305 -999
2006-04-10 07:24:25 51°13.678 2°55.831 131.8 4.7 306 -999
2006-04-10 07:24:30 51°13.682 2°55.822 132.1 4.7 307 -999
2006-04-10 07:24:34 51°13.685 2°55.816 132.2 4.6 307 -999
2006-04-10 07:24:40 51°13.69 2°55.806 132 4.5 307 -999
2006-04-10 07:24:45 51°13.693 2°55.799 131.5 4.4 307 -999
2006-04-10 07:24:50 51°13.697 2°55.791 130.8 4.3 306 -999
2006-04-10 07:24:55 51°13.7 2°55.783 129.8 4.2 306 -999
2006-04-10 07:25:00 51°13.703 2°55.776 128.5 4.2 304 -999
2006-04-10 07:25:05 51°13.706 2°55.768 127.4 4.1 304 -999
2006-04-10 07:25:10 51°13.709 2°55.761 126.2 4.1 304 -999
2006-04-10 07:25:15 51°13.712 2°55.754 125.5 3.6 302 -999
2006-04-10 07:25:20 51°13.714 2°55.748 125 3.4 301 -999
2006-04-10 07:25:25 51°13.716 2°55.743 124.8 3.1 300 -999
2006-04-10 07:25:30 51°13.718 2°55.738 124.2 2.6 299 -999
2006-04-10 07:25:35 51°13.719 2°55.735 123.6 2 301 -999
2006-04-10 07:25:40 51°13.719 2°55.733 122.6 1.2 296 5.9
2006-04-10 07:25:45 51°13.72 2°55.732 120.4 0.8 300 -999
2006-04-10 07:25:50 51°13.72 2°55.733 116.7 -999 339 -999
2006-04-10 07:25:55 51°13.72 2°55.734 112 0.4 82 -999
2006-04-10 07:26:00 51°13.72 2°55.735 107.3 0.6 100 -999
2006-04-10 07:26:05 51°13.72 2°55.737 102.5 0.8 91 -999
2006-04-10 07:26:10 51°13.719 2°55.739 97.8 1 93 -999
2006-04-10 07:26:14 51°13.72 2°55.741 93.1 1.2 86 -999
2006-04-10 07:26:20 51°13.72 2°55.745 88.8 1.2 87 -999
2006-04-10 07:26:25 51°13.72 2°55.747 85.1 1.1 80 -999
2006-04-10 07:26:30 51°13.72 2°55.748 82.9 0.8 87 -999
2006-04-10 07:26:35 51°13.72 2°55.749 81.6 0.6 89 -999
2006-04-10 07:26:40 51°13.72 2°55.749 79.5 0.2 134 -999
2006-04-10 07:26:45 51°13.719 2°55.748 78.3 0.3 229 -999
2006-04-10 07:26:50 51°13.719 2°55.747 77.7 0.8 240 -999
2006-04-10 07:26:55 51°13.718 2°55.744 77.6 1 246 -999
2006-04-10 07:27:00 51°13.717 2°55.74 77.9 1.6 247 -999
2006-04-10 07:27:05 51°13.716 2°55.736 78.6 1.8 249 -999
2006-04-10 07:27:10 51°13.715 2°55.732 79.2 2.1 251 -999
2006-04-10 07:27:14 51°13.715 2°55.728 79.8 2.1 255 -999
2006-04-10 07:27:20 51°13.714 2°55.724 80.6 1.9 253 -999
2006-04-10 07:27:25 51°13.713 2°55.721 81.4 1.8 257 -999
2006-04-10 07:27:30 51°13.713 2°55.72 81.8 0.7 242 -999
2006-04-10 07:27:34 51°13.713 2°55.72 79.5 0.4 238 -999
2006-04-10 07:27:40 51°13.713 2°55.722 75.4 0.7 72 -999
2006-04-10 07:27:45 51°13.714 2°55.725 69.9 1.2 64 -999
2006-04-10 07:27:50 51°13.716 2°55.728 63.7 1.4 62 -999
2006-04-10 07:27:55 51°13.718 2°55.732 56.8 2.1 50 -999
2006-04-10 07:28:00 51°13.72 2°55.735 50 2.2 50 -999
2006-04-10 07:28:05 51°13.722 2°55.738 44.7 2 45 -999
2006-04-10 07:28:10 51°13.723 2°55.741 41.8 1.9 44 -999
2006-04-10 07:28:15 51°13.724 2°55.743 40.2 1.1 49 -999
2006-04-10 07:28:20 51°13.725 2°55.743 37.9 0.6 49 -999
2006-04-10 07:28:25 51°13.724 2°55.743 35.9 0.3 95 -999
2006-04-10 07:28:30 51°13.723 2°55.743 34.1 0.5 191 5.2
2006-04-10 07:28:34 51°13.722 2°55.743 33.3 0.8 194 -999
2006-04-10 07:28:40 51°13.72 2°55.741 32.3 1.2 204 -999
2006-04-10 07:28:45 51°13.717 2°55.739 31.7 1.7 202 5
2006-04-10 07:28:50 51°13.715 2°55.737 31.2 2 206 -999
2006-04-10 07:28:55 51°13.712 2°55.736 31.1 2 202 -999
2006-04-10 07:29:00 51°13.71 2°55.734 31 1.8 207 -999
2006-04-10 07:29:05 51°13.708 2°55.733 31.1 1.6 203 -999
2006-04-10 07:29:10 51°13.707 2°55.732 31.1 1.3 201 -999
2006-04-10 07:29:15 51°13.706 2°55.731 30.2 0.9 203 -999
2006-04-10 07:29:20 51°13.706 2°55.731 28.1 0.6 202 -999
2006-04-10 07:29:25 51°13.706 2°55.731 25.7 0.2 214 -999
2006-04-10 07:29:30 51°13.707 2°55.732 22 0.6 9 -999
2006-04-10 07:29:35 51°13.709 2°55.732 17.4 0.9 9 -999
2006-04-10 07:29:40 51°13.711 2°55.732 11.7 1.5 1 -999
2006-04-10 07:29:45 51°13.714 2°55.732 6.7 1.7 358 -999
2006-04-10 07:29:50 51°13.717 2°55.731 359.1 2.2 353 -999
2006-04-10 07:29:55 51°13.721 2°55.729 352.4 2.7 345 -999
2006-04-10 07:30:00 51°13.725 2°55.726 344.8 3.2 337 -999
2006-04-10 07:30:05 51°13.73 2°55.722 337.8 3.6 331 -999
2006-04-10 07:30:10 51°13.735 2°55.716 333.3 4 328 -999
2006-04-10 07:30:15 51°13.74 2°55.711 331.1 4.1 327 -999
2006-04-10 07:30:20 51°13.745 2°55.705 330 4.6 325 -999
2006-04-10 07:30:25 51°13.751 2°55.698 330.2 4.9 325 -999
2006-04-10 07:30:30 51°13.757 2°55.692 332.4 5.1 327 -999
2006-04-10 07:30:34 51°13.762 2°55.687 333.6 5.4 329 10.1
2006-04-10 07:30:40 51°13.77 2°55.68 334.7 5.5 329 -999
2006-04-10 07:30:45 51°13.777 2°55.673 335.3 5.7 329 -999
2006-04-10 07:30:50 51°13.784 2°55.667 336 5.8 330 -999
2006-04-10 07:30:55 51°13.791 2°55.66 336.4 5.9 330 -999
2006-04-10 07:31:00 51°13.799 2°55.654 337.2 6 331 -999
2006-04-10 07:31:05 51°13.806 2°55.648 337.8 6.1 331 -999
2006-04-10 07:31:10 51°13.814 2°55.641 338.6 6.2 333 -999
2006-04-10 07:31:15 51°13.821 2°55.635 339.1 6.2 333 -999
2006-04-10 07:31:20 51°13.829 2°55.629 339.9 6.2 334 -999
2006-04-10 07:31:25 51°13.837 2°55.623 340 6.3 335 10.2
2006-04-10 07:31:30 51°13.845 2°55.617 340.1 6.3 334 -999
2006-04-10 07:31:35 51°13.853 2°55.611 340.7 6.3 336 -999
2006-04-10 07:31:40 51°13.861 2°55.606 341.4 6.2 335 -999
2006-04-10 07:31:45 51°13.869 2°55.6 341.5 6.2 335 -999
2006-04-10 07:31:50 51°13.876 2°55.594 340.9 6.1 334 -999
2006-04-10 07:31:55 51°13.884 2°55.589 340.8 6.1 335 -999
2006-04-10 07:32:00 51°13.891 2°55.583 341.1 6 335 9.9
2006-04-10 07:32:05 51°13.899 2°55.577 341.2 6 335 -999
2006-04-10 07:32:10 51°13.906 2°55.572 341.3 6 336 -999
2006-04-10 07:32:15 51°13.914 2°55.566 341.3 5.9 336 -999
2006-04-10 07:32:20 51°13.921 2°55.561 341.3 5.9 336 -999
2006-04-10 07:32:24 51°13.927 2°55.557 341.3 5.8 335 9.8
2006-04-10 07:32:30 51°13.936 2°55.55 341.4 5.8 335 9.8
2006-04-10 07:32:35 51°13.943 2°55.545 341.3 5.8 335 9.8
2006-04-10 07:32:40 51°13.95 2°55.54 341 5.8 335 -999
2006-04-10 07:32:45 51°13.958 2°55.534 340.9 5.8 335 9.8
2006-04-10 07:32:50 51°13.965 2°55.529 340.9 5.9 336 -999
2006-04-10 07:32:54 51°13.972 2°55.524 341.1 5.9 336 9.9
2006-04-10 07:33:00 51°13.982 2°55.517 341.3 6.5 336 9.9
2006-04-10 07:33:05 51°13.991 2°55.51 341.3 7 335 9.9
2006-04-10 07:33:10 51°14.001 2°55.503 341.3 7.3 336 9.9
2006-04-10 07:33:14 51°14.009 2°55.497 341.5 7.6 335 9.9
2006-04-10 07:33:20 51°14.021 2°55.488 341.5 8 335 -999
2006-04-10 07:33:25 51°14.031 2°55.481 341.6 8.2 336 9.9
2006-04-10 07:33:30 51°14.042 2°55.474 342.6 8.2 336 9.9
2006-04-10 07:33:34 51°14.051 2°55.468 343.3 8.6 337 9.9
2006-04-10 07:33:40 51°14.065 2°55.458 343.3 8.8 336 9.9
2006-04-10 07:33:45 51°14.076 2°55.45 342.5 8.8 336 9.9
2006-04-10 07:33:50 51°14.087 2°55.442 342.5 8.9 336 9.9
2006-04-10 07:33:55 51°14.099 2°55.434 342.5 9 336 9.9
2006-04-10 07:33:59 51°14.108 2°55.427 341.6 9.1 334 9.9
2006-04-10 07:34:04 51°14.119 2°55.418 340.8 9.2 334 9.8
2006-04-10 07:34:10 51°14.133 2°55.407 340.8 9.3 334 9.8
2006-04-10 07:34:15 51°14.145 2°55.398 341 9.3 334 -999
2006-04-10 07:34:20 51°14.156 2°55.388 339.8 9.3 333 -999
2006-04-10 07:34:25 51°14.168 2°55.378 338.9 9.4 332 9.8
2006-04-10 07:34:30 51°14.179 2°55.368 338.1 9.4 331 -999
2006-04-10 07:34:34 51°14.188 2°55.359 336.5 9.4 329 9.8
2006-04-10 07:34:40 51°14.201 2°55.345 334.1 9.4 326 -999
2006-04-10 07:34:45 51°14.212 2°55.332 331.8 9.4 325 -999
2006-04-10 07:34:50 51°14.222 2°55.32 330.4 9.5 324 -999
2006-04-10 07:34:55 51°14.232 2°55.307 328.8 9.4 321 -999
2006-04-10 07:35:00 51°14.242 2°55.293 326 9.5 318 -999
2006-04-10 07:35:05 51°14.251 2°55.278 322.9 9.5 316 -999
2006-04-10 07:35:10 51°14.261 2°55.262 320.5 9.7 314 -999
2006-04-10 07:35:15 51°14.27 2°55.245 318.6 9.8 313 -999
2006-04-10 07:35:20 51°14.278 2°55.229 317.1 9.9 311 -999
2006-04-10 07:35:25 51°14.288 2°55.212 316.4 10.1 311 -999
2006-04-10 07:35:30 51°14.297 2°55.196 316.5 10.1 311 -999
2006-04-10 07:35:35 51°14.307 2°55.179 317.4 10.2 313 -999
2006-04-10 07:35:40 51°14.316 2°55.162 317.5 10.2 311 -999
2006-04-10 07:35:45 51°14.326 2°55.144 316.7 10.3 311 -999
2006-04-10 07:35:50 51°14.334 2°55.127 315 10.4 309 -999
2006-04-10 07:35:54 51°14.341 2°55.113 313.9 10.2 308 -999
2006-04-10 07:36:00 51°14.353 2°55.09 313.6 10.3 309 -999
2006-04-10 07:36:05 51°14.361 2°55.074 315.1 10.4 309 -999
2006-04-10 07:36:10 51°14.372 2°55.057 317.4 10.4 312 -999
2006-04-10 07:36:14 51°14.379 2°55.045 320.5 10.4 314 10.3
2006-04-10 07:36:18 51°14.387 2°55.031 322.1 10.4 313 10.3
2006-04-10 07:36:24 51°14.398 2°55.012 322.7 10.4 313 10.2
2006-04-10 07:36:30 51°14.411 2°54.991 323.7 10.2 314 10.1
2006-04-10 07:36:34 51°14.419 2°54.978 324.4 10.4 315 10.2
2006-04-10 07:36:38 51°14.427 2°54.965 325.9 10.5 316 10.2
2006-04-10 07:36:44 51°14.44 2°54.946 327 10.6 317 10.1
2006-04-10 07:36:50 51°14.454 2°54.927 328.9 10.5 319 9.9
2006-04-10 07:36:54 51°14.463 2°54.916 330.9 10.6 320 10
2006-04-10 07:37:00 51°14.477 2°54.898 333 10.6 322 9.7
2006-04-10 07:37:04 51°14.487 2°54.887 333.8 10.8 323 9.7
2006-04-10 07:37:10 51°14.501 2°54.871 334.8 10.9 323 9.7
2006-04-10 07:37:14 51°14.511 2°54.859 335.3 11.1 324 9.5
2006-04-10 07:37:20 51°14.527 2°54.842 335.9 11.3 325 9.5
2006-04-10 07:37:24 51°14.537 2°54.83 336 11.5 325 9.4
2006-04-10 07:37:29 51°14.551 2°54.815 335.8 11.9 325 9.4
2006-04-10 07:37:34 51°14.565 2°54.8 335.7 11.9 326 9.5
2006-04-10 07:37:40 51°14.581 2°54.782 335.8 12.1 325 9.4
2006-04-10 07:37:44 51°14.592 2°54.77 336 12.1 325 9.3
2006-04-10 07:37:50 51°14.609 2°54.75 335.6 12.2 324 9.3
2006-04-10 07:37:54 51°14.619 2°54.737 334.6 12.3 324 9.2
2006-04-10 07:38:00 51°14.636 2°54.719 334.4 12.3 324 9.4
2006-04-10 07:38:04 51°14.647 2°54.705 334.6 12.3 324 9.3
2006-04-10 07:38:09 51°14.662 2°54.69 335.2 12.4 326 9.4
2006-04-10 07:38:14 51°14.675 2°54.675 335.7 12.3 325 9.3
2006-04-10 07:38:19 51°14.69 2°54.659 335.9 12.3 326 9.2
2006-04-10 07:38:25 51°14.706 2°54.641 335.7 12.3 325 9.5
2006-04-10 07:38:30 51°14.72 2°54.626 335.8 12.2 325 9.6
2006-04-10 07:38:34 51°14.731 2°54.614 335.4 12.3 325 9.3
2006-04-10 07:38:40 51°14.749 2°54.594 335.8 12.3 325 9.2
2006-04-10 07:38:44 51°14.76 2°54.582 335.7 12.4 326 9.4
2006-04-10 07:38:50 51°14.775 2°54.565 335.8 12.3 327 9.3
2006-04-10 07:38:55 51°14.791 2°54.549 336.5 12.3 327 9.1
2006-04-10 07:39:00 51°14.805 2°54.535 336.4 12.2 327 9.1
2006-04-10 07:39:04 51°14.815 2°54.522 336.6 12.2 325 9
2006-04-10 07:39:10 51°14.833 2°54.504 336.2 12.3 325 9.1
2006-04-10 07:39:14 51°14.844 2°54.492 336.1 12.3 326 9.1
2006-04-10 07:39:18 51°14.855 2°54.48 336.5 12.3 326 9.4
2006-04-10 07:39:24 51°14.872 2°54.46 336.4 12.3 326 9.3
2006-04-10 07:39:30 51°14.889 2°54.441 335.7 12.4 324 9.3
2006-04-10 07:39:34 51°14.9 2°54.428 335.1 12.3 324 9.2
2006-04-10 07:39:40 51°14.916 2°54.409 334.8 12.3 325 9.2
2006-04-10 07:39:44 51°14.928 2°54.397 335.3 12.4 325 9.1
2006-04-10 07:39:50 51°14.944 2°54.379 335.3 12.3 326 9
2006-04-10 07:39:54 51°14.956 2°54.367 336 12.3 325 8.7
2006-04-10 07:40:00 51°14.973 2°54.347 335.9 12.3 325 8.6
2006-04-10 07:40:04 51°14.984 2°54.334 335.8 12.3 325 8.5
2006-04-10 07:40:10 51°15 2°54.316 335.8 12.2 325 8.5
2006-04-10 07:40:14 51°15.011 2°54.303 335.8 12.2 325 8.4
2006-04-10 07:40:20 51°15.029 2°54.284 336 12.2 325 8.5
2006-04-10 07:40:25 51°15.042 2°54.27 336.1 12.2 325 8.5
2006-04-10 07:40:30 51°15.055 2°54.255 336.4 12.2 325 8.7
2006-04-10 07:40:35 51°15.069 2°54.239 336.3 12.2 325 8.6
2006-04-10 07:40:40 51°15.083 2°54.224 336.2 12.1 325 8.6
2006-04-10 07:40:45 51°15.097 2°54.208 336 12.2 325 8.7
2006-04-10 07:40:50 51°15.111 2°54.192 336 12.2 325 8.8
2006-04-10 07:40:54 51°15.123 2°54.18 335.7 12.3 326 8.9
2006-04-10 07:40:59 51°15.136 2°54.165 335.9 12.2 326 8.8
2006-04-10 07:41:04 51°15.151 2°54.15 336.7 12.3 327 8.9
2006-04-10 07:41:10 51°15.168 2°54.131 337 12.4 327 8.9
2006-04-10 07:41:14 51°15.18 2°54.12 337.5 12.3 327 8.9
2006-04-10 07:41:20 51°15.197 2°54.102 337.5 12.3 326 9
2006-04-10 07:41:24 51°15.208 2°54.09 337.2 12.3 328 9.1
2006-04-10 07:41:30 51°15.225 2°54.072 337.2 12.3 326 9.2
2006-04-10 07:41:35 51°15.239 2°54.057 336.9 12.3 326 9.2
2006-04-10 07:41:40 51°15.254 2°54.041 336.4 12.4 326 9.2
2006-04-10 07:41:44 51°15.265 2°54.03 335.9 12.4 326 9.3
2006-04-10 07:41:50 51°15.282 2°54.011 335.8 12.4 326 9.3
2006-04-10 07:41:54 51°15.294 2°53.999 335.9 12.4 326 9.4
2006-04-10 07:42:00 51°15.311 2°53.981 336 12.4 326 9.5
2006-04-10 07:42:05 51°15.326 2°53.966 336.3 12.4 327 9.5
2006-04-10 07:42:10 51°15.34 2°53.952 336.7 12.4 327 9.8
2006-04-10 07:42:14 51°15.352 2°53.941 336.9 12.3 328 9.7
2006-04-10 07:42:20 51°15.369 2°53.923 337.6 12.4 328 9.9
2006-04-10 07:42:25 51°15.384 2°53.909 338 12.4 328 9.8
2006-04-10 07:42:30 51°15.398 2°53.894 337.8 12.4 328 9.9
2006-04-10 07:42:34 51°15.41 2°53.881 337.7 12.4 326 9.9
2006-04-10 07:42:40 51°15.426 2°53.863 337 12.3 325 9.9
2006-04-10 07:42:45 51°15.44 2°53.847 336.5 12.4 325 9.9
2006-04-10 07:42:50 51°15.454 2°53.83 335.8 12.4 325 10
2006-04-10 07:42:54 51°15.464 2°53.817 335.6 12.3 323 10.1
2006-04-10 07:43:00 51°15.48 2°53.798 335.5 12.3 322 10.2
2006-04-10 07:43:04 51°15.492 2°53.784 335.4 12.3 323 10.2
2006-04-10 07:43:10 51°15.507 2°53.765 335.4 12.3 323 10.2
2006-04-10 07:43:14 51°15.519 2°53.753 336.2 12.2 324 10.3
2006-04-10 07:43:20 51°15.536 2°53.735 337.6 12.2 325 10.2
2006-04-10 07:43:24 51°15.547 2°53.723 338.4 12.1 326 10.3
2006-04-10 07:43:30 51°15.564 2°53.705 339.3 12.1 326 10.2
2006-04-10 07:43:34 51°15.575 2°53.694 339.6 12.1 327 10.5
2006-04-10 07:43:40 51°15.591 2°53.676 339.4 12.2 327 10.5
2006-04-10 07:43:45 51°15.606 2°53.662 339.6 12.1 327 10.4
2006-04-10 07:43:50 51°15.62 2°53.647 339.6 12.1 327 10.5
2006-04-10 07:43:54 51°15.632 2°53.635 339.6 12.2 328 10.6
2006-04-10 07:44:00 51°15.648 2°53.619 339.5 12.1 327 10.6
2006-04-10 07:44:04 51°15.66 2°53.608 339.2 12.2 328 10.7
2006-04-10 07:44:09 51°15.675 2°53.594 339.6 12.1 329 10.6
2006-04-10 07:44:15 51°15.691 2°53.578 340.1 12.1 329 10.8
2006-04-10 07:44:20 51°15.707 2°53.564 340.3 12 329 10.7
2006-04-10 07:44:24 51°15.718 2°53.552 339.8 12.1 329 10.8
2006-04-10 07:44:30 51°15.735 2°53.537 339.9 12.1 329 11
2006-04-10 07:44:34 51°15.746 2°53.525 339.4 12.1 328 10.9
2006-04-10 07:44:40 51°15.764 2°53.507 338.9 12.1 328 10.8
2006-04-10 07:44:44 51°15.775 2°53.495 337.9 12.2 327 11
2006-04-10 07:44:50 51°15.793 2°53.479 338.7 12.1 329 10.9
2006-04-10 07:44:54 51°15.804 2°53.468 339.3 12.1 329 11.1
2006-04-10 07:45:00 51°15.822 2°53.452 339.6 12.1 330 11.1
2006-04-10 07:45:04 51°15.834 2°53.441 340.3 12.2 330 11.1
2006-04-10 07:45:10 51°15.852 2°53.426 340.7 12.2 330 11.2
2006-04-10 07:45:14 51°15.863 2°53.416 341.3 12.3 331 11.2
2006-04-10 07:45:18 51°15.875 2°53.405 342.1 12.2 332 11.3
2006-04-10 07:45:25 51°15.897 2°53.385 342 12.3 331 11.3
2006-04-10 07:45:30 51°15.911 2°53.372 341.7 12.4 330 11.4
2006-04-10 07:45:34 51°15.922 2°53.361 341.2 12.2 330 11.6
2006-04-10 07:45:39 51°15.937 2°53.348 340.8 12.2 330 11.4
2006-04-10 07:45:44 51°15.952 2°53.334 340.6 12.2 330 11.4
2006-04-10 07:45:50 51°15.97 2°53.319 340.8 12.3 331 11.5
2006-04-10 07:45:54 51°15.982 2°53.308 341.3 12.4 331 11.5
2006-04-10 07:46:00 51°15.999 2°53.294 341.6 12.2 332 11.7
2006-04-10 07:46:04 51°16.011 2°53.283 341.8 12.2 332 11.6
2006-04-10 07:46:10 51°16.03 2°53.266 341.8 12.1 332 11.6
2006-04-10 07:46:14 51°16.043 2°53.256 342 12.1 333 11.6
2006-04-10 07:46:20 51°16.059 2°53.241 342.6 12.1 331 11.8
2006-04-10 07:46:24 51°16.072 2°53.231 342.1 12.1 331 11.5
2006-04-10 07:46:30 51°16.089 2°53.214 341.2 12.1 331 11.8
2006-04-10 07:46:34 51°16.101 2°53.204 341.1 12.1 331 11.7
2006-04-10 07:46:40 51°16.118 2°53.189 341 12.1 331 11.9
2006-04-10 07:46:44 51°16.13 2°53.179 341.1 12.1 331 11.9
2006-04-10 07:46:50 51°16.147 2°53.163 341 12.1 331 11.9
2006-04-10 07:46:54 51°16.159 2°53.152 341.1 12.2 330 11.9
2006-04-10 07:47:00 51°16.176 2°53.136 340.7 12.2 330 12
2006-04-10 07:47:05 51°16.19 2°53.123 340.4 12 330 11.9
2006-04-10 07:47:10 51°16.205 2°53.11 340.6 12 331 11.9
2006-04-10 07:47:14 51°16.216 2°53.1 341.1 12 331 11.9
2006-04-10 07:47:20 51°16.235 2°53.084 342 11.9 331 11.9
2006-04-10 07:47:25 51°16.249 2°53.071 341.5 11.8 330 11.9
2006-04-10 07:47:30 51°16.264 2°53.058 340.7 11.8 332 11.9
2006-04-10 07:47:34 51°16.275 2°53.049 340.9 11.9 332 12
2006-04-10 07:47:39 51°16.29 2°53.036 341 11.9 332 12.1
2006-04-10 07:47:44 51°16.304 2°53.025 341.4 12 333 12.1
2006-04-10 07:47:50 51°16.323 2°53.01 342.1 12.1 333 12
2006-04-10 07:47:54 51°16.334 2°53 342.4 12.1 331 12
2006-04-10 07:48:00 51°16.352 2°52.984 342 12.1 331 12.1
2006-04-10 07:48:04 51°16.363 2°52.974 341.3 12 331 12.1
2006-04-10 07:48:10 51°16.382 2°52.958 341.1 12.1 331 11.9
2006-04-10 07:48:14 51°16.393 2°52.949 341.3 12.2 332 12.1
2006-04-10 07:48:20 51°16.41 2°52.934 341.8 12.1 332 12.1
2006-04-10 07:48:25 51°16.425 2°52.922 341.8 12.2 332 12.1
2006-04-10 07:48:30 51°16.439 2°52.909 341.4 12.2 332 12
2006-04-10 07:48:34 51°16.451 2°52.899 341.1 12 332 11.8
2006-04-10 07:48:40 51°16.469 2°52.885 341.8 12.2 333 12
2006-04-10 07:48:44 51°16.481 2°52.875 342.1 12.2 333 11.9
2006-04-10 07:48:49 51°16.497 2°52.863 342.1 12.1 334 11.9
2006-04-10 07:48:54 51°16.511 2°52.851 342.8 12 334 11.9
2006-04-10 07:49:00 51°16.529 2°52.839 343.3 12.1 335 11.9
2006-04-10 07:49:05 51°16.545 2°52.827 344 12.1 335 11.6
2006-04-10 07:49:10 51°16.56 2°52.817 344.4 12.1 335 11.7
2006-04-10 07:49:14 51°16.573 2°52.808 344.7 11.9 336 11.8
2006-04-10 07:49:19 51°16.587 2°52.797 344.8 12.1 336 11.8
2006-04-10 07:49:25 51°16.605 2°52.785 345.1 12.1 336 11.7
2006-04-10 07:49:30 51°16.621 2°52.774 344.8 12.1 336 11.7
2006-04-10 07:49:34 51°16.634 2°52.766 345.4 12.1 338 11.5
2006-04-10 07:49:40 51°16.652 2°52.754 346 12 338 11.4
2006-04-10 07:49:45 51°16.667 2°52.745 346.6 12 339 11.3
2006-04-10 07:49:50 51°16.684 2°52.735 347.7 12 340 11
2006-04-10 07:49:55 51°16.699 2°52.727 348.3 12.1 340 11
2006-04-10 07:50:00 51°16.714 2°52.718 348.7 11.8 340 10.8
2006-04-10 07:50:05 51°16.73 2°52.709 348.7 11.9 340 10.5
2006-04-10 07:50:10 51°16.746 2°52.7 348.7 11.9 340 10.3
2006-04-10 07:50:14 51°16.758 2°52.692 348.3 11.9 339 9.9
2006-04-10 07:50:20 51°16.776 2°52.681 348.2 11.9 340 10
2006-04-10 07:50:24 51°16.788 2°52.674 348.1 11.9 341 10
2006-04-10 07:50:30 51°16.808 2°52.664 349.3 11.6 343 9.8
2006-04-10 07:50:34 51°16.821 2°52.659 351.1 11.7 343 10
2006-04-10 07:50:40 51°16.839 2°52.651 352.6 11.4 345 9.7
2006-04-10 07:50:44 51°16.851 2°52.647 353.6 11.4 346 9.6
2006-04-10 07:50:50 51°16.869 2°52.64 354.5 11.6 347 9.7
2006-04-10 07:50:55 51°16.885 2°52.635 356 11.5 348 9.8
2006-04-10 07:51:00 51°16.902 2°52.631 356.8 11.6 348 9.9
2006-04-10 07:51:05 51°16.917 2°52.626 357 11.6 350 10
2006-04-10 07:51:10 51°16.934 2°52.621 357.6 11.6 350 10
2006-04-10 07:51:14 51°16.947 2°52.618 358 11.8 350 10.2
2006-04-10 07:51:20 51°16.966 2°52.613 358.3 11.7 350 10.1
2006-04-10 07:51:24 51°16.979 2°52.609 358.4 11.9 350 10.3
2006-04-10 07:51:29 51°16.994 2°52.605 358.5 11.8 351 10.3
2006-04-10 07:51:34 51°17.012 2°52.601 358.5 11.9 351 10.2
2006-04-10 07:51:40 51°17.03 2°52.595 358.5 11.7 350 10
2006-04-10 07:51:44 51°17.042 2°52.592 358.6 11.7 350 10
2006-04-10 07:51:50 51°17.062 2°52.586 358.3 11.7 350 9.9
2006-04-10 07:51:55 51°17.079 2°52.581 358.2 11.7 350 9.7
2006-04-10 07:52:00 51°17.094 2°52.578 358.1 11.6 349 9.8
2006-04-10 07:52:05 51°17.11 2°52.572 358.3 11.7 350 9.6
2006-04-10 07:52:10 51°17.126 2°52.569 358.2 11.7 350 9.6
2006-04-10 07:52:14 51°17.139 2°52.565 358 11.7 350 9.9
2006-04-10 07:52:19 51°17.154 2°52.561 358.4 11.5 352 9.8
2006-04-10 07:52:25 51°17.174 2°52.556 358.7 11.5 351 9.8
2006-04-10 07:52:30 51°17.19 2°52.553 359.5 11.6 353 9.9
2006-04-10 07:52:34 51°17.203 2°52.55 -999 11.6 353 10.1
2006-04-10 07:52:40 51°17.222 2°52.546 -999 11.6 352 10
2006-04-10 07:52:44 51°17.234 2°52.543 0.1 11.5 352 10.2
2006-04-10 07:52:50 51°17.254 2°52.539 0.2 11.6 352 10
2006-04-10 07:52:55 51°17.269 2°52.536 -999 11.6 352 10.2
2006-04-10 07:53:00 51°17.285 2°52.533 0.1 11.6 352 10.3
2006-04-10 07:53:05 51°17.301 2°52.529 -999 11.5 352 10.4
2006-04-10 07:53:10 51°17.317 2°52.525 -999 11.7 352 10.3
2006-04-10 07:53:14 51°17.33 2°52.523 0.1 11.7 352 10.3
2006-04-10 07:53:20 51°17.349 2°52.518 -999 11.7 351 10.3
2006-04-10 07:53:25 51°17.365 2°52.514 359.9 11.7 352 10.4
2006-04-10 07:53:30 51°17.381 2°52.51 359.5 11.7 352 10.5
2006-04-10 07:53:35 51°17.398 2°52.506 359.4 11.7 352 10.4
2006-04-10 07:53:40 51°17.413 2°52.503 359.8 11.7 352 10.5
2006-04-10 07:53:45 51°17.43 2°52.5 359.7 11.7 352 10.6
2006-04-10 07:53:50 51°17.446 2°52.496 359.7 11.7 352 10.4
2006-04-10 07:53:54 51°17.459 2°52.493 359.8 11.8 352 10.5
2006-04-10 07:53:59 51°17.475 2°52.489 359.7 11.8 353 10.7
2006-04-10 07:54:04 51°17.491 2°52.487 0.4 11.7 353 10.8
2006-04-10 07:54:10 51°17.509 2°52.484 1.3 11.7 354 10.6
2006-04-10 07:54:14 51°17.522 2°52.482 2 11.6 355 10.4
2006-04-10 07:54:20 51°17.542 2°52.479 2.2 11.6 355 10.5
2006-04-10 07:54:25 51°17.557 2°52.478 2.5 11.6 355 10.7
2006-04-10 07:54:30 51°17.574 2°52.475 2 11.7 355 10.5
2006-04-10 07:54:34 51°17.587 2°52.473 2 11.7 355 10.5
2006-04-10 07:54:40 51°17.606 2°52.471 2.1 11.7 355 10.5
2006-04-10 07:54:44 51°17.619 2°52.47 3.1 11.7 357 10.6
2006-04-10 07:54:50 51°17.639 2°52.47 4.2 11.7 357 10.7
2006-04-10 07:54:54 51°17.652 2°52.469 5.2 11.8 359 10.5
2006-04-10 07:55:00 51°17.671 2°52.468 5.7 11.8 359 10.7
2006-04-10 07:55:04 51°17.685 2°52.468 6.3 11.8 359 10.6
2006-04-10 07:55:10 51°17.704 2°52.467 6.4 11.8 359 10.4
2006-04-10 07:55:15 51°17.72 2°52.467 6.3 11.7 -999 10.5
2006-04-10 07:55:20 51°17.737 2°52.467 6.7 11.8 -999 10.4
2006-04-10 07:55:24 51°17.75 2°52.466 7.1 11.7 359 10.5
2006-04-10 07:55:29 51°17.766 2°52.467 6.6 11.8 -999 10.4
2006-04-10 07:55:35 51°17.786 2°52.466 6.7 11.9 359 10.5
2006-04-10 07:55:40 51°17.801 2°52.466 6.3 11.9 359 10.7
2006-04-10 07:55:45 51°17.818 2°52.467 6.8 11.6 -999 10.5
2006-04-10 07:55:50 51°17.833 2°52.467 7.7 11.6 -999 10.7
2006-04-10 07:55:54 51°17.847 2°52.467 7.6 11.6 1 10.6
2006-04-10 07:56:00 51°17.867 2°52.468 8.3 11.5 2 10.5
2006-04-10 07:56:04 51°17.878 2°52.47 9 11.5 2 10.5
2006-04-10 07:56:09 51°17.895 2°52.47 9.6 11.5 3 10.5
2006-04-10 07:56:14 51°17.911 2°52.471 10 11.6 3 10.7
2006-04-10 07:56:20 51°17.93 2°52.473 9.7 11.5 3 10.7
2006-04-10 07:56:25 51°17.946 2°52.475 10.2 11.7 4 10.9
2006-04-10 07:56:30 51°17.963 2°52.479 10.5 11.6 7 10.7
2006-04-10 07:56:34 51°17.975 2°52.482 13 11.6 8 10.8
2006-04-10 07:56:40 51°17.994 2°52.489 15.4 11.6 8 10.8
2006-04-10 07:56:45 51°18.01 2°52.494 17.4 11.6 12 10.7
2006-04-10 07:56:50 51°18.025 2°52.503 18.7 11.6 13 10.8
2006-04-10 07:56:54 51°18.037 2°52.51 22.5 11.5 20 10.8
2006-04-10 07:57:00 51°18.055 2°52.523 25.9 11.7 23 10.8
2006-04-10 07:57:05 51°18.069 2°52.534 27.4 11.7 24 10.9
2006-04-10 07:57:10 51°18.083 2°52.547 30.1 11.7 31 11
2006-04-10 07:57:15 51°18.096 2°52.562 33.9 11.7 31 11
2006-04-10 07:57:20 51°18.11 2°52.577 36.4 11.7 34 10.9
2006-04-10 07:57:24 51°18.119 2°52.589 39.1 11.6 38 11
2006-04-10 07:57:30 51°18.135 2°52.61 41.2 11.5 39 10.7
2006-04-10 07:57:34 51°18.144 2°52.623 42.8 11.5 39 10.9
2006-04-10 07:57:40 51°18.16 2°52.642 43.6 11.8 40 10.9
2006-04-10 07:57:44 51°18.169 2°52.656 42.8 11.6 40 11.1
2006-04-10 07:57:50 51°18.184 2°52.676 43.2 11.3 40 11
2006-04-10 07:57:54 51°18.193 2°52.69 44.2 11.5 43 11.1
2006-04-10 07:58:00 51°18.206 2°52.712 46 11.8 45 11.1
2006-04-10 07:58:05 51°18.218 2°52.733 47.3 11.7 46 11
2006-04-10 07:58:10 51°18.229 2°52.75 49.6 11.7 48 11.2
2006-04-10 07:58:15 51°18.24 2°52.769 50.7 11.6 49 11.3
2006-04-10 07:58:20 51°18.248 2°52.79 51.5 11.6 52 11.1
2006-04-10 07:58:25 51°18.258 2°52.812 52.8 11.8 52 10.9
2006-04-10 07:58:30 51°18.269 2°52.832 54.9 11.8 54 10.9
2006-04-10 07:58:34 51°18.276 2°52.85 56.4 11.9 57 11.2
2006-04-10 07:58:40 51°18.286 2°52.876 58.4 11.9 57 11.2
2006-04-10 07:58:45 51°18.293 2°52.9 59.5 11.7 62 11.1
2006-04-10 07:58:50 51°18.302 2°52.923 62.4 11.7 62 11.2
2006-04-10 07:58:54 51°18.306 2°52.943 64.4 11.9 68 11.2
2006-04-10 07:58:58 51°18.312 2°52.96 66 11.9 65 11
2006-04-10 07:59:04 51°18.319 2°52.99 68 11.9 67 11.2
2006-04-10 07:59:10 51°18.325 2°53.02 69.4 11.8 68 11.2
2006-04-10 07:59:14 51°18.33 2°53.04 70.5 12 72 11.1
2006-04-10 07:59:20 51°18.336 2°53.069 70.9 11.8 70 11.1
2006-04-10 07:59:25 51°18.342 2°53.094 71.1 11.7 70 11.2
2006-04-10 07:59:30 51°18.348 2°53.119 71.6 11.9 70 11
2006-04-10 07:59:34 51°18.353 2°53.138 71.7 11.7 71 11
2006-04-10 07:59:40 51°18.359 2°53.169 72 11.9 71 10.9
2006-04-10 07:59:44 51°18.364 2°53.187 71.5 11.7 68 11.1
2006-04-10 07:59:48 51°18.368 2°53.207 71.2 11.9 73 11.1
2006-04-10 07:59:54 51°18.375 2°53.237 71.6 11.9 66 11.2
2006-04-10 08:00:00 51°18.381 2°53.267 70.3 11.9 66 11
2006-04-10 08:00:05 51°18.387 2°53.291 71.1 11.8 70 11
2006-04-10 08:00:10 51°18.393 2°53.314 70.9 11.9 69 11
2006-04-10 08:00:14 51°18.397 2°53.334 70.9 11.9 69 11.2
2006-04-10 08:00:20 51°18.405 2°53.362 70.3 11.9 67 11.4
2006-04-10 08:00:24 51°18.411 2°53.382 68.8 11.7 67 11.6
2006-04-10 08:00:30 51°18.419 2°53.41 68.7 11.8 67 11.6
2006-04-10 08:00:34 51°18.424 2°53.429 68.1 11.7 64 11.6
2006-04-10 08:00:40 51°18.432 2°53.458 67.9 11.9 66 11.6
2006-04-10 08:00:45 51°18.44 2°53.482 67.7 12 64 11.6
2006-04-10 08:00:50 51°18.447 2°53.506 67.5 12 66 11.6
2006-04-10 08:00:54 51°18.453 2°53.525 67.4 12 64 11.7
2006-04-10 08:01:00 51°18.461 2°53.554 66.7 12 64 11.4
2006-04-10 08:01:04 51°18.467 2°53.573 67.4 12 66 11.4
2006-04-10 08:01:10 51°18.474 2°53.601 67 11.9 66 11.5
2006-04-10 08:01:15 51°18.481 2°53.626 67.3 11.9 66 11.3
2006-04-10 08:01:18 51°18.485 2°53.641 68.1 12 66 11.2
2006-04-10 08:01:24 51°18.493 2°53.669 67.6 11.9 67 11.3
2006-04-10 08:01:30 51°18.501 2°53.698 67.9 11.9 67 11.3
2006-04-10 08:01:34 51°18.507 2°53.717 67.8 11.8 65 11.3
2006-04-10 08:01:40 51°18.515 2°53.745 67.6 11.9 66 11.4
2006-04-10 08:01:44 51°18.52 2°53.765 67.6 12.1 66 11.3
2006-04-10 08:01:50 51°18.528 2°53.795 67.2 12 67 11.4
2006-04-10 08:01:54 51°18.533 2°53.813 67.4 11.8 64 11.1
2006-04-10 08:02:00 51°18.542 2°53.841 67.9 11.9 65 11.2
2006-04-10 08:02:04 51°18.547 2°53.86 67.1 11.8 65 11.2
2006-04-10 08:02:10 51°18.556 2°53.89 66.6 11.8 63 11.1
2006-04-10 08:02:14 51°18.561 2°53.909 67.1 12 68 11.2
2006-04-10 08:02:20 51°18.57 2°53.937 67.6 12 68 11.2
2006-04-10 08:02:24 51°18.575 2°53.957 66.7 12 66 11.1
2006-04-10 08:02:30 51°18.584 2°53.984 67.1 11.9 64 11.2
2006-04-10 08:02:34 51°18.589 2°54.004 65.9 11.8 64 11.2
2006-04-10 08:02:40 51°18.597 2°54.031 66.7 11.9 65 11.3
2006-04-10 08:02:45 51°18.604 2°54.055 65.9 11.8 64 11.2
2006-04-10 08:02:50 51°18.611 2°54.08 66.2 11.9 66 11.2
2006-04-10 08:02:54 51°18.617 2°54.099 66.7 11.8 63 11.2
2006-04-10 08:03:00 51°18.626 2°54.126 66.8 11.9 65 11.3
2006-04-10 08:03:05 51°18.632 2°54.15 67 11.7 64 11.4
2006-04-10 08:03:10 51°18.639 2°54.174 66.6 11.7 66 11.3
2006-04-10 08:03:14 51°18.644 2°54.193 67.7 11.8 66 11.3
2006-04-10 08:03:20 51°18.652 2°54.22 67.5 11.8 66 11.4
2006-04-10 08:03:25 51°18.659 2°54.244 66.7 11.9 67 11.3
2006-04-10 08:03:30 51°18.666 2°54.268 67.3 11.8 64 11.3
2006-04-10 08:03:35 51°18.672 2°54.292 66.7 11.8 64 11.3
2006-04-10 08:03:38 51°18.677 2°54.305 66.3 11.8 63 11.3
2006-04-10 08:03:44 51°18.686 2°54.334 66.5 11.8 64 11.4
2006-04-10 08:03:50 51°18.693 2°54.361 66.4 11.9 64 11.5
2006-04-10 08:03:54 51°18.698 2°54.381 66.2 11.7 66 11.4
2006-04-10 08:04:00 51°18.707 2°54.41 67.1 11.8 64 11.4
2006-04-10 08:04:05 51°18.714 2°54.434 66.6 11.8 63 11.4
2006-04-10 08:04:10 51°18.722 2°54.457 66.2 11.8 64 11.4
2006-04-10 08:04:15 51°18.729 2°54.48 66.3 11.8 64 11.4
2006-04-10 08:04:20 51°18.736 2°54.503 66.2 11.8 64 11.5
2006-04-10 08:04:24 51°18.742 2°54.523 66 11.9 63 11.4
2006-04-10 08:04:30 51°18.751 2°54.551 65.9 11.9 64 11.4
2006-04-10 08:04:34 51°18.757 2°54.569 65.7 11.9 64 11.4
2006-04-10 08:04:40 51°18.767 2°54.596 65.9 11.9 64 11.4
2006-04-10 08:04:44 51°18.772 2°54.615 65.6 11.8 65 11.5
2006-04-10 08:04:49 51°18.779 2°54.639 65.9 11.7 64 11.5
2006-04-10 08:04:54 51°18.785 2°54.662 66.7 11.8 67 11.4
2006-04-10 08:05:00 51°18.792 2°54.693 67.6 11.8 68 11.3
2006-04-10 08:05:04 51°18.798 2°54.711 69.4 11.8 69 11.3
2006-04-10 08:05:10 51°18.805 2°54.739 69.3 11.8 69 11.5
2006-04-10 08:05:14 51°18.81 2°54.758 69.1 11.5 68 11.2
2006-04-10 08:05:20 51°18.817 2°54.788 69.2 11.6 68 11.2
2006-04-10 08:05:24 51°18.822 2°54.808 69.8 11.9 68 11.2
2006-04-10 08:05:30 51°18.829 2°54.836 68.9 11.9 65 11.3
2006-04-10 08:05:34 51°18.834 2°54.855 68.3 11.9 68 11.4
2006-04-10 08:05:40 51°18.841 2°54.884 68.2 11.8 68 11.3
2006-04-10 08:05:45 51°18.848 2°54.908 69.1 11.7 66 11.2
2006-04-10 08:05:50 51°18.854 2°54.933 68.5 11.7 66 11.2
2006-04-10 08:05:54 51°18.859 2°54.952 69.5 11.7 66 11.3
2006-04-10 08:06:00 51°18.867 2°54.981 68.6 11.9 66 11.2
2006-04-10 08:06:05 51°18.874 2°55.004 69.4 11.9 67 11.4
2006-04-10 08:06:10 51°18.879 2°55.03 68.3 11.8 69 11.3
2006-04-10 08:06:15 51°18.886 2°55.054 69.6 11.7 68 11.3
2006-04-10 08:06:20 51°18.892 2°55.077 69.3 11.8 67 11.2
2006-04-10 08:06:24 51°18.898 2°55.095 68.9 11.8 65 11.3
2006-04-10 08:06:30 51°18.906 2°55.125 68.3 11.9 67 11.4
2006-04-10 08:06:34 51°18.911 2°55.145 68.5 11.8 67 11.2
2006-04-10 08:06:40 51°18.918 2°55.174 68.5 11.8 67 11.2
2006-04-10 08:06:44 51°18.923 2°55.193 68.8 11.7 67 11.3
2006-04-10 08:06:50 51°18.93 2°55.22 68.1 11.6 68 11.4
2006-04-10 08:06:54 51°18.935 2°55.241 68 11.8 67 11.1
2006-04-10 08:07:00 51°18.943 2°55.269 69.4 11.9 68 11.1
2006-04-10 08:07:05 51°18.949 2°55.293 68.7 11.9 66 11.3
2006-04-10 08:07:10 51°18.957 2°55.317 68.8 11.6 66 11.2
2006-04-10 08:07:14 51°18.961 2°55.334 68.5 11.6 67 11.4
2006-04-10 08:07:20 51°18.967 2°55.364 69.2 11.6 69 11.1
2006-04-10 08:07:25 51°18.974 2°55.388 69.4 11.7 65 10.9
2006-04-10 08:07:30 51°18.981 2°55.41 68.2 11.7 67 11.3
2006-04-10 08:07:34 51°18.986 2°55.43 68.2 11.8 68 11
2006-04-10 08:07:40 51°18.994 2°55.459 68.2 11.5 66 11.1
2006-04-10 08:07:45 51°19 2°55.481 68.2 11.5 68 11.4
2006-04-10 08:07:50 51°19.006 2°55.506 68.8 11.6 65 11.1
2006-04-10 08:07:54 51°19.012 2°55.525 68.3 11.7 68 11.1
2006-04-10 08:08:00 51°19.019 2°55.553 68.4 11.7 68 11.3
2006-04-10 08:08:05 51°19.024 2°55.577 68.8 11.8 68 11.3
2006-04-10 08:08:10 51°19.031 2°55.602 68.6 11.5 67 10.9
2006-04-10 08:08:15 51°19.038 2°55.625 69.3 11.5 67 10.7
2006-04-10 08:08:18 51°19.041 2°55.639 68.5 11.6 66 10.9
2006-04-10 08:08:24 51°19.049 2°55.667 68.1 11.7 67 10.9
2006-04-10 08:08:30 51°19.057 2°55.696 68.5 11.7 65 10.9
2006-04-10 08:08:34 51°19.062 2°55.715 68 11.7 65 11.1
2006-04-10 08:08:40 51°19.069 2°55.743 66.8 11.6 63 11
2006-04-10 08:08:44 51°19.075 2°55.761 68.1 11.6 68 10.9
2006-04-10 08:08:50 51°19.083 2°55.789 68.2 11.6 66 11.1
2006-04-10 08:08:55 51°19.09 2°55.813 68.3 11.6 66 10.8
2006-04-10 08:09:00 51°19.096 2°55.837 67.7 11.6 65 10.8
2006-04-10 08:09:04 51°19.101 2°55.856 67.6 11.7 66 10.8
2006-04-10 08:09:08 51°19.107 2°55.874 68.2 11.6 64 10.9
2006-04-10 08:09:15 51°19.115 2°55.908 67.8 11.6 64 11
2006-04-10 08:09:20 51°19.122 2°55.932 68 11.5 66 10.6
2006-04-10 08:09:24 51°19.128 2°55.949 68.2 11.6 67 10.9
2006-04-10 08:09:30 51°19.136 2°55.977 67.3 11.6 65 10.7
2006-04-10 08:09:34 51°19.141 2°55.996 68 11.6 67 10.9
2006-04-10 08:09:40 51°19.149 2°56.023 67.8 11.5 64 10.9
2006-04-10 08:09:45 51°19.155 2°56.048 66.8 11.5 64 10.8
2006-04-10 08:09:50 51°19.163 2°56.071 67.7 11.6 65 10.9
2006-04-10 08:09:54 51°19.167 2°56.089 67.1 11.6 64 11
2006-04-10 08:10:00 51°19.175 2°56.117 68.3 11.7 68 11.1
2006-04-10 08:10:04 51°19.179 2°56.138 68.2 11.6 69 10.8
2006-04-10 08:10:08 51°19.185 2°56.156 68.4 11.4 66 11.1
2006-04-10 08:10:14 51°19.192 2°56.184 68.7 11.6 68 11
2006-04-10 08:10:20 51°19.2 2°56.211 68.8 11.5 67 10.9
2006-04-10 08:10:25 51°19.206 2°56.235 68.7 11.6 67 10.8
2006-04-10 08:10:30 51°19.213 2°56.259 68.3 11.5 67 10.8
2006-04-10 08:10:34 51°19.217 2°56.278 68.8 11.6 69 10.9
2006-04-10 08:10:40 51°19.225 2°56.305 69 11.6 69 11.1
2006-04-10 08:10:44 51°19.23 2°56.325 68.3 11.5 67 10.9
2006-04-10 08:10:50 51°19.238 2°56.354 68.9 11.6 64 10.9
2006-04-10 08:10:54 51°19.243 2°56.374 68.4 11.7 63 10.9
2006-04-10 08:11:00 51°19.251 2°56.4 69.2 11.6 65 11.1
2006-04-10 08:11:04 51°19.255 2°56.42 68.2 11.6 70 10.8
2006-04-10 08:11:10 51°19.263 2°56.449 68.7 11.6 66 10.6
2006-04-10 08:11:14 51°19.269 2°56.467 68.3 11.6 65 10.7
2006-04-10 08:11:20 51°19.277 2°56.495 67.8 11.6 65 10.9
2006-04-10 08:11:24 51°19.281 2°56.514 68.2 11.7 64 11
2006-04-10 08:11:30 51°19.289 2°56.543 67.8 11.7 69 10.7
2006-04-10 08:11:35 51°19.295 2°56.565 69.1 11.7 69 10.8
2006-04-10 08:11:40 51°19.302 2°56.59 69.4 11.5 67 10.7
2006-04-10 08:11:44 51°19.306 2°56.61 69.5 11.6 68 10.7
2006-04-10 08:11:50 51°19.314 2°56.636 68.8 11.5 67 10.5
2006-04-10 08:11:54 51°19.319 2°56.655 68.9 11.6 67 10.6
2006-04-10 08:12:00 51°19.327 2°56.684 68.9 11.6 67 10.6
2006-04-10 08:12:05 51°19.333 2°56.707 68.4 11.6 67 10.6
2006-04-10 08:12:10 51°19.34 2°56.731 68.7 11.7 66 10.6
2006-04-10 08:12:14 51°19.345 2°56.75 68.3 11.6 67 10.6
2006-04-10 08:12:20 51°19.352 2°56.78 68.8 11.7 68 10.6
2006-04-10 08:12:25 51°19.358 2°56.803 69.1 11.8 68 10.6
2006-04-10 08:12:30 51°19.364 2°56.826 68.9 11.7 68 10.6
2006-04-10 08:12:34 51°19.37 2°56.845 69.4 11.8 70 10.6
2006-04-10 08:12:39 51°19.376 2°56.869 69.1 11.7 67 10.6
2006-04-10 08:12:44 51°19.382 2°56.892 68.9 11.7 65 10.5
2006-04-10 08:12:50 51°19.39 2°56.922 68.5 11.8 67 10.5
2006-04-10 08:12:54 51°19.395 2°56.94 68.7 11.7 66 10.6
2006-04-10 08:13:00 51°19.403 2°56.969 69.7 11.7 66 10.6
2006-04-10 08:13:05 51°19.409 2°56.994 69.2 11.8 66 10.6
2006-04-10 08:13:10 51°19.416 2°57.017 68.8 11.7 66 10.6
2006-04-10 08:13:14 51°19.42 2°57.036 68.3 11.7 66 10.3
2006-04-10 08:13:20 51°19.428 2°57.065 69.5 11.9 68 10.3
2006-04-10 08:13:24 51°19.434 2°57.084 69.5 11.8 67 10.4
2006-04-10 08:13:30 51°19.44 2°57.113 68.8 11.8 66 10.4
2006-04-10 08:13:35 51°19.448 2°57.137 68.9 11.7 66 10.4
2006-04-10 08:13:40 51°19.454 2°57.16 67.6 11.6 64 10.3
2006-04-10 08:13:44 51°19.459 2°57.18 68.8 11.8 65 10.3
2006-04-10 08:13:50 51°19.468 2°57.208 68.3 11.7 66 10.5
2006-04-10 08:13:54 51°19.472 2°57.228 68 11.8 64 10.7
2006-04-10 08:14:00 51°19.48 2°57.256 68.9 11.7 68 10.6
2006-04-10 08:14:05 51°19.485 2°57.279 69.4 11.8 68 10.6
2006-04-10 08:14:10 51°19.492 2°57.303 69.2 11.7 65 10.6
2006-04-10 08:14:14 51°19.497 2°57.322 68.6 11.7 66 10.4
2006-04-10 08:14:20 51°19.506 2°57.351 68.2 11.7 66 10.5
2006-04-10 08:14:24 51°19.51 2°57.37 68.4 11.7 66 10.5
2006-04-10 08:14:30 51°19.519 2°57.398 68.2 11.7 65 10.5
2006-04-10 08:14:35 51°19.526 2°57.422 68.4 11.7 65 10.6
2006-04-10 08:14:40 51°19.533 2°57.446 67.3 11.8 65 10.4
2006-04-10 08:14:45 51°19.539 2°57.47 67.8 11.9 66 10.4
2006-04-10 08:14:50 51°19.546 2°57.494 68.2 11.8 66 10.4
2006-04-10 08:14:54 51°19.55 2°57.513 68.3 11.8 68 10.4
2006-04-10 08:15:00 51°19.559 2°57.542 69.5 11.8 66 10.4
2006-04-10 08:15:05 51°19.565 2°57.566 68.8 11.7 68 10.4
2006-04-10 08:15:10 51°19.571 2°57.591 69.1 11.9 67 10.3
2006-04-10 08:15:15 51°19.578 2°57.615 68.8 12.1 68 10.3
2006-04-10 08:15:20 51°19.584 2°57.639 68.6 11.8 64 10.3
2006-04-10 08:15:25 51°19.591 2°57.662 67.9 11.6 66 10.5
2006-04-10 08:15:30 51°19.597 2°57.688 68.7 11.8 65 10.1
2006-04-10 08:15:34 51°19.602 2°57.706 67.9 11.8 68 10.5
2006-04-10 08:15:40 51°19.609 2°57.735 68.1 11.7 67 10.4
2006-04-10 08:15:44 51°19.615 2°57.753 68.8 11.8 64 10.1
2006-04-10 08:15:48 51°19.62 2°57.773 67.8 11.8 67 10.2
2006-04-10 08:15:54 51°19.627 2°57.801 68 11.7 67 10.3
2006-04-10 08:16:00 51°19.635 2°57.83 68.4 11.7 67 10.2
2006-04-10 08:16:05 51°19.641 2°57.854 68.7 11.7 66 10.2
2006-04-10 08:16:10 51°19.648 2°57.877 68.7 11.7 68 10.3
2006-04-10 08:16:14 51°19.652 2°57.898 69 11.7 68 10.2
2006-04-10 08:16:20 51°19.66 2°57.927 69 11.8 66 10.1
2006-04-10 08:16:25 51°19.666 2°57.951 68.9 11.7 66 10.3
2006-04-10 08:16:30 51°19.672 2°57.974 68.5 11.7 68 10.3
2006-04-10 08:16:35 51°19.679 2°57.999 68.4 11.7 65 10.2
2006-04-10 08:16:40 51°19.686 2°58.02 68 11.8 67 10.4
2006-04-10 08:16:45 51°19.692 2°58.046 67.4 11.8 68 10.1
2006-04-10 08:16:50 51°19.698 2°58.069 67.6 11.7 63 10.2
2006-04-10 08:16:54 51°19.704 2°58.089 67.2 11.9 68 10
2006-04-10 08:17:00 51°19.712 2°58.116 67.6 11.7 64 10.1
2006-04-10 08:17:05 51°19.718 2°58.141 66.8 11.6 69 10
2006-04-10 08:17:10 51°19.724 2°58.164 68.5 11.5 67 10
2006-04-10 08:17:14 51°19.729 2°58.182 69.2 11.8 69 10.2
2006-04-10 08:17:20 51°19.736 2°58.212 68.1 11.8 69 10.1
2006-04-10 08:17:24 51°19.741 2°58.232 68.9 11.7 68 10.1
2006-04-10 08:17:30 51°19.749 2°58.258 69 11.6 65 10.2
2006-04-10 08:17:35 51°19.755 2°58.283 68.1 11.6 65 10.1
2006-04-10 08:17:38 51°19.759 2°58.298 69 11.7 66 10.1
2006-04-10 08:17:45 51°19.768 2°58.33 68.4 11.7 68 10.1
2006-04-10 08:17:50 51°19.774 2°58.355 67.5 11.7 67 10.1
2006-04-10 08:17:54 51°19.779 2°58.374 68.2 11.8 66 10.1
2006-04-10 08:18:00 51°19.787 2°58.403 67.4 11.6 66 10.2
2006-04-10 08:18:05 51°19.794 2°58.426 67.5 11.7 65 10.1
2006-04-10 08:18:10 51°19.8 2°58.449 67.8 11.8 67 10.2
2006-04-10 08:18:15 51°19.807 2°58.473 67.9 11.9 66 10.2
2006-04-10 08:18:20 51°19.813 2°58.497 67.4 11.7 67 10.1
2006-04-10 08:18:25 51°19.82 2°58.521 68.2 11.7 64 10.2
2006-04-10 08:18:30 51°19.825 2°58.545 68 11.7 66 10.3
2006-04-10 08:18:35 51°19.833 2°58.569 67.7 11.8 68 10
2006-04-10 08:18:40 51°19.838 2°58.593 67.7 11.7 69 10
2006-04-10 08:18:44 51°19.843 2°58.613 68.5 11.8 66 9.9
2006-04-10 08:18:50 51°19.85 2°58.641 69 11.9 69 10.1
2006-04-10 08:18:54 51°19.855 2°58.66 68.9 11.9 69 10.2
2006-04-10 08:19:00 51°19.863 2°58.688 68.2 11.8 67 10.2
2006-04-10 08:19:05 51°19.869 2°58.713 67.9 11.7 70 10.2
2006-04-10 08:19:10 51°19.874 2°58.738 68.9 11.8 67 10.1
2006-04-10 08:19:14 51°19.88 2°58.757 68.6 11.7 68 10
2006-04-10 08:19:20 51°19.887 2°58.785 69 11.8 67 10.1
2006-04-10 08:19:25 51°19.894 2°58.809 68.3 11.9 67 10.1
2006-04-10 08:19:30 51°19.9 2°58.833 67.6 11.7 66 10.1
2006-04-10 08:19:34 51°19.905 2°58.853 68.2 11.8 69 10.2
2006-04-10 08:19:40 51°19.912 2°58.883 68.1 11.8 69 10.1
2006-04-10 08:19:45 51°19.919 2°58.905 68.5 11.8 67 10.1
2006-04-10 08:19:50 51°19.925 2°58.929 67.9 11.8 66 10.2
2006-04-10 08:19:55 51°19.932 2°58.953 68.2 11.7 67 10.1
2006-04-10 08:20:00 51°19.937 2°58.978 68 11.9 69 10.1
2006-04-10 08:20:04 51°19.944 2°58.996 67.9 11.8 64 10.3
2006-04-10 08:20:10 51°19.95 2°59.026 67.2 11.8 65 10.2
2006-04-10 08:20:14 51°19.957 2°59.044 68 11.9 68 10.2
2006-04-10 08:20:20 51°19.963 2°59.073 67.5 11.9 68 10.4
2006-04-10 08:20:24 51°19.968 2°59.093 68 11.8 69 10.1
2006-04-10 08:20:30 51°19.977 2°59.121 68.8 11.7 65 10.1
2006-04-10 08:20:35 51°19.983 2°59.146 67.6 11.7 65 10
2006-04-10 08:20:40 51°19.989 2°59.17 68.6 11.8 67 10.2
2006-04-10 08:20:44 51°19.994 2°59.19 68.2 11.9 69 10.2
2006-04-10 08:20:50 51°20.001 2°59.218 68.2 11.8 67 10.2
2006-04-10 08:20:55 51°20.008 2°59.243 68.4 11.8 67 10.1
2006-04-10 08:21:00 51°20.014 2°59.266 67.9 11.8 68 10.2
2006-04-10 08:21:04 51°20.019 2°59.286 68.8 11.8 70 10.2
2006-04-10 08:21:10 51°20.025 2°59.315 68.9 11.9 68 10.2
2006-04-10 08:21:15 51°20.033 2°59.339 68.4 11.9 68 10.1
2006-04-10 08:21:20 51°20.039 2°59.363 67.6 11.8 65 10.2
2006-04-10 08:21:24 51°20.044 2°59.383 68.7 11.8 69 10.2
2006-04-10 08:21:30 51°20.052 2°59.412 68.8 11.8 66 10.2
2006-04-10 08:21:34 51°20.057 2°59.431 68.1 11.9 68 10.2
2006-04-10 08:21:40 51°20.065 2°59.46 68.5 11.9 65 10.2
2006-04-10 08:21:45 51°20.072 2°59.485 68 11.9 67 10.2
2006-04-10 08:21:50 51°20.078 2°59.508 68 12 67 10.2
2006-04-10 08:21:55 51°20.084 2°59.533 67.3 11.8 66 10.1
2006-04-10 08:22:00 51°20.091 2°59.557 68.3 11.8 68 10.1
2006-04-10 08:22:05 51°20.097 2°59.582 68.8 12 66 10.1
2006-04-10 08:22:10 51°20.103 2°59.606 68.6 12 66 10.2
2006-04-10 08:22:14 51°20.108 2°59.626 69 12.1 67 10.2
2006-04-10 08:22:18 51°20.113 2°59.646 68.6 12 68 10.3
2006-04-10 08:22:24 51°20.122 2°59.674 68.4 12 68 10.3
2006-04-10 08:22:30 51°20.13 2°59.704 68 12 66 10.2
2006-04-10 08:22:34 51°20.134 2°59.724 68.4 12.1 66 10.1
2006-04-10 08:22:40 51°20.143 2°59.752 67.4 11.9 64 10.1
2006-04-10 08:22:44 51°20.148 2°59.772 67.4 11.9 68 10
2006-04-10 08:22:50 51°20.156 2°59.802 68.5 12.1 67 9.9
2006-04-10 08:22:55 51°20.163 2°59.827 68.2 12.1 66 10.1
2006-04-10 08:23:00 51°20.169 2°59.85 68 12.1 67 10.2
2006-04-10 08:23:05 51°20.175 2°59.876 68.2 12 66 10.3
2006-04-10 08:23:10 51°20.182 2°59.9 68.4 11.9 68 10.2
2006-04-10 08:23:15 51°20.188 2°59.926 68.8 11.9 68 10.1
2006-04-10 08:23:20 51°20.194 2°59.949 69.1 11.9 68 10.2
2006-04-10 08:23:24 51°20.199 2°59.969 68.9 12 69 10.3
2006-04-10 08:23:30 51°20.206 2°59.999 69.8 12 69 10
2006-04-10 08:23:34 51°20.211 3°0.018 69.1 12.1 67 10.2
2006-04-10 08:23:40 51°20.218 3°0.049 68.7 12.1 68 10
2006-04-10 08:23:44 51°20.223 3°0.069 68.8 11.9 67 10.1
2006-04-10 08:23:50 51°20.23 3°0.098 68.9 12 69 10.2
2006-04-10 08:23:54 51°20.236 3°0.117 69.6 12.2 69 10.2
2006-04-10 08:24:00 51°20.243 3°0.147 68.3 12.2 67 10.3
2006-04-10 08:24:05 51°20.25 3°0.172 68.9 12 68 10.3
2006-04-10 08:24:10 51°20.256 3°0.196 68.3 12 66 10.2
2006-04-10 08:24:14 51°20.261 3°0.215 68.4 11.9 68 10.3
2006-04-10 08:24:20 51°20.268 3°0.246 68.9 12.1 68 10.3
2006-04-10 08:24:25 51°20.275 3°0.27 69.2 12.2 68 10.3
2006-04-10 08:24:30 51°20.281 3°0.295 68 11.9 65 10.3
2006-04-10 08:24:34 51°20.286 3°0.315 68.4 12.1 71 10.2
2006-04-10 08:24:40 51°20.294 3°0.345 69 12.3 65 10.2
2006-04-10 08:24:44 51°20.3 3°0.363 67.1 12.3 65 10.2
2006-04-10 08:24:49 51°20.306 3°0.389 68.1 12 67 10.2
2006-04-10 08:24:54 51°20.313 3°0.414 68.9 12.2 66 10.2
2006-04-10 08:25:00 51°20.32 3°0.443 68.2 12.3 69 10.4
2006-04-10 08:25:04 51°20.325 3°0.463 68.5 12.1 68 10.2
2006-04-10 08:25:10 51°20.333 3°0.494 68.2 12.1 68 10
2006-04-10 08:25:15 51°20.34 3°0.517 68.2 12.1 67 10.1
2006-04-10 08:25:20 51°20.346 3°0.542 68.3 12.2 68 10.1
2006-04-10 08:25:25 51°20.352 3°0.569 67.8 12.1 68 10.1
2006-04-10 08:25:30 51°20.359 3°0.593 68.4 12.2 67 10
2006-04-10 08:25:34 51°20.364 3°0.614 68.5 12.3 67 10.1
2006-04-10 08:25:40 51°20.372 3°0.642 68.4 12.3 67 10.4
2006-04-10 08:25:45 51°20.377 3°0.669 68.6 12.1 67 10.3
2006-04-10 08:25:50 51°20.385 3°0.692 68.9 12.3 70 10.4
2006-04-10 08:25:54 51°20.389 3°0.712 67.9 12.3 64 10.2
2006-04-10 08:26:00 51°20.397 3°0.743 68.7 12.2 67 10.2
2006-04-10 08:26:05 51°20.404 3°0.768 68.6 12.2 67 10.3
2006-04-10 08:26:10 51°20.41 3°0.791 68.2 12.1 68 10.6
2006-04-10 08:26:14 51°20.414 3°0.812 68.1 12.1 68 10.1
2006-04-10 08:26:20 51°20.423 3°0.842 69.4 12.3 67 10.1
2006-04-10 08:26:25 51°20.429 3°0.866 68.6 12.2 67 10.3
2006-04-10 08:26:30 51°20.436 3°0.89 67 12 66 10.2
2006-04-10 08:26:34 51°20.441 3°0.911 67.5 12.1 66 10.1
2006-04-10 08:26:40 51°20.449 3°0.94 67.5 12.1 66 10.1
2006-04-10 08:26:44 51°20.454 3°0.96 68.1 12.1 66 10.2
2006-04-10 08:26:50 51°20.462 3°0.991 68 12.2 68 10
2006-04-10 08:26:54 51°20.468 3°1.011 68.7 12.2 67 10.3
2006-04-10 08:27:00 51°20.475 3°1.04 68.1 12.2 67 10.4
2006-04-10 08:27:04 51°20.481 3°1.059 68.3 12 67 10.4
2006-04-10 08:27:10 51°20.488 3°1.09 67.7 12.3 69 10.3
2006-04-10 08:27:15 51°20.496 3°1.116 68.3 12.3 69 10.2
2006-04-10 08:27:18 51°20.499 3°1.131 68.2 12.3 69 10.5
2006-04-10 08:27:24 51°20.507 3°1.16 68.1 12.1 66 10.4
2006-04-10 08:27:30 51°20.514 3°1.191 67.6 12.1 66 10.4
2006-04-10 08:27:34 51°20.521 3°1.211 68.1 12.3 65 10.2
2006-04-10 08:27:40 51°20.528 3°1.239 67.6 12.1 66 10.3
2006-04-10 08:27:44 51°20.533 3°1.259 68.2 12.2 68 10.3
2006-04-10 08:27:50 51°20.541 3°1.291 67.5 12.2 66 10.3
2006-04-10 08:27:54 51°20.547 3°1.31 68 12.2 67 10.5
2006-04-10 08:28:00 51°20.554 3°1.339 68.3 12.1 68 10.4
2006-04-10 08:28:05 51°20.561 3°1.365 68.5 12.1 68 10.3
2006-04-10 08:28:10 51°20.567 3°1.389 68.1 12.2 69 10.3
2006-04-10 08:28:14 51°20.573 3°1.408 68.4 12.2 67 10.5
2006-04-10 08:28:20 51°20.58 3°1.439 68.2 12.1 70 10.3
2006-04-10 08:28:25 51°20.586 3°1.465 68.9 12.1 70 10.3
2006-04-10 08:28:30 51°20.593 3°1.49 68.4 12.2 67 10.4
2006-04-10 08:28:34 51°20.598 3°1.511 67.6 12.2 65 10.3
2006-04-10 08:28:40 51°20.606 3°1.54 68.4 12.2 67 10.4
2006-04-10 08:28:45 51°20.613 3°1.565 68 12.3 67 10.3
2006-04-10 08:28:50 51°20.62 3°1.59 67.6 12.2 67 10.2
2006-04-10 08:28:55 51°20.627 3°1.615 67.9 12.2 67 10.3
2006-04-10 08:29:00 51°20.633 3°1.639 67.5 12.3 66 10.4
2006-04-10 08:29:04 51°20.639 3°1.66 67.9 12.3 66 10.3
2006-04-10 08:29:10 51°20.647 3°1.689 67.2 12.1 66 10.4
2006-04-10 08:29:15 51°20.653 3°1.715 67.5 12.1 66 10.3
2006-04-10 08:29:18 51°20.657 3°1.73 68.8 12.3 66 10.3
2006-04-10 08:29:24 51°20.666 3°1.76 67.5 12.3 67 10.4
2006-04-10 08:29:30 51°20.672 3°1.79 68 12.2 67 10.2
2006-04-10 08:29:34 51°20.678 3°1.809 67.8 12.1 67 10.2
2006-04-10 08:29:40 51°20.685 3°1.84 68.1 12.2 68 10.1
2006-04-10 08:29:45 51°20.692 3°1.865 68.9 12.3 67 10.2
2006-04-10 08:29:50 51°20.7 3°1.89 68.2 12.3 68 10.2
2006-04-10 08:29:55 51°20.706 3°1.914 68.2 12.3 67 10.3
2006-04-10 08:30:00 51°20.712 3°1.941 68.2 12.1 68 10.1
2006-04-10 08:30:04 51°20.717 3°1.959 69.1 12.2 69 10.3
2006-04-10 08:30:10 51°20.725 3°1.99 68.7 12.3 68 10.4
2006-04-10 08:30:14 51°20.73 3°2.009 68.8 12.2 69 10.5
2006-04-10 08:30:20 51°20.737 3°2.04 69.4 12.2 68 10.2
2006-04-10 08:30:24 51°20.743 3°2.061 69.5 12.3 66 10.3
2006-04-10 08:30:30 51°20.751 3°2.089 68.1 12.3 67 10.5
2006-04-10 08:30:34 51°20.757 3°2.109 67.9 12.2 66 10.5
2006-04-10 08:30:40 51°20.765 3°2.14 67.7 12.1 67 10.5
2006-04-10 08:30:44 51°20.77 3°2.159 67.8 12.1 66 10.6
2006-04-10 08:30:50 51°20.778 3°2.189 67.2 12.2 66 10.4
2006-04-10 08:30:55 51°20.784 3°2.215 68 12.2 66 10.2
2006-04-10 08:31:00 51°20.791 3°2.239 69.1 12.4 69 10.2
2006-04-10 08:31:05 51°20.797 3°2.264 68.2 12.2 68 10.4
2006-04-10 08:31:10 51°20.805 3°2.289 69 12.1 65 10.4
2006-04-10 08:31:15 51°20.81 3°2.313 67.9 12.1 65 10.6
2006-04-10 08:31:18 51°20.815 3°2.328 68.9 12.1 65 10.5
2006-04-10 08:31:24 51°20.822 3°2.358 68.2 12.2 68 10.7
2006-04-10 08:31:30 51°20.83 3°2.388 68.7 12.2 67 10.7
2006-04-10 08:31:34 51°20.835 3°2.408 68.9 12.4 68 10.8
2006-04-10 08:31:40 51°20.843 3°2.438 68.2 12.3 68 10.7
2006-04-10 08:31:44 51°20.848 3°2.458 67.8 12.2 68 10.5
2006-04-10 08:31:49 51°20.856 3°2.483 68.9 12.4 66 10.6
2006-04-10 08:31:54 51°20.863 3°2.509 68 12.3 66 10.5
2006-04-10 08:32:00 51°20.871 3°2.538 67.5 12.3 67 10.6
2006-04-10 08:32:04 51°20.876 3°2.558 68 12.4 67 10.5
2006-04-10 08:32:08 51°20.882 3°2.579 67.9 12.3 65 10.5
2006-04-10 08:32:14 51°20.889 3°2.609 67.6 12.2 68 10.5
2006-04-10 08:32:20 51°20.898 3°2.638 68.6 12.2 68 10.4
2006-04-10 08:32:25 51°20.904 3°2.665 69 12.3 67 10.4
2006-04-10 08:32:30 51°20.91 3°2.689 68.9 12.3 68 10.6
2006-04-10 08:32:34 51°20.916 3°2.709 68.1 12.2 66 10.5
2006-04-10 08:32:40 51°20.924 3°2.739 68.2 12.3 68 10.5
2006-04-10 08:32:44 51°20.929 3°2.758 68.3 12.2 65 10.6
2006-04-10 08:32:50 51°20.938 3°2.789 68.1 12.3 68 10.6
2006-04-10 08:32:54 51°20.943 3°2.81 68.6 12.4 65 10.6
2006-04-10 08:33:00 51°20.95 3°2.839 68.6 12.4 65 10.8
2006-04-10 08:33:05 51°20.957 3°2.865 67.8 12.3 68 10.6
2006-04-10 08:33:10 51°20.963 3°2.89 69.1 12.3 68 10.8
2006-04-10 08:33:14 51°20.968 3°2.911 69 12.4 67 10.6
2006-04-10 08:33:20 51°20.977 3°2.94 68.5 12.3 67 10.7
2006-04-10 08:33:24 51°20.982 3°2.961 68.3 12.4 67 10.6
2006-04-10 08:33:30 51°20.991 3°2.991 67.7 12.3 65 10.5
2006-04-10 08:33:34 51°20.996 3°3.01 67.5 12.2 67 10.7
2006-04-10 08:33:40 51°21.004 3°3.04 67.4 12.3 67 10.7
2006-04-10 08:33:44 51°21.01 3°3.06 68 12.4 66 10.6
2006-04-10 08:33:50 51°21.018 3°3.09 67.9 12.4 66 10.8
2006-04-10 08:33:54 51°21.023 3°3.111 67.9 12.4 67 10.8
2006-04-10 08:34:00 51°21.032 3°3.14 68 12.4 67 10.8
2006-04-10 08:34:04 51°21.037 3°3.161 67.5 12.3 66 10.8
2006-04-10 08:34:10 51°21.045 3°3.191 68.2 12.4 68 10.7
2006-04-10 08:34:15 51°21.052 3°3.216 68.5 12.5 65 10.7
2006-04-10 08:34:20 51°21.059 3°3.241 67.9 12.4 68 10.8
2006-04-10 08:34:24 51°21.064 3°3.262 68 12.3 67 10.7
2006-04-10 08:34:30 51°21.072 3°3.292 68.8 12.4 66 10.7
2006-04-10 08:34:35 51°21.078 3°3.318 68.8 12.4 66 10.7
2006-04-10 08:34:40 51°21.085 3°3.342 68.9 12.4 68 10.7
2006-04-10 08:34:44 51°21.09 3°3.362 69.5 12.4 68 10.7
2006-04-10 08:34:50 51°21.099 3°3.394 69.4 12.4 66 10.8
2006-04-10 08:34:55 51°21.105 3°3.419 68.8 12.4 66 10.9
2006-04-10 08:35:00 51°21.113 3°3.444 68.6 12.4 68 11
2006-04-10 08:35:05 51°21.119 3°3.469 68 12.5 68 11
2006-04-10 08:35:10 51°21.126 3°3.495 68.5 12.5 64 10.9
2006-04-10 08:35:15 51°21.133 3°3.52 67.8 12.5 64 10.9
2006-04-10 08:35:18 51°21.138 3°3.535 68.2 12.5 66 11.1
2006-04-10 08:35:24 51°21.146 3°3.566 68 12.5 67 11.2
2006-04-10 08:35:30 51°21.154 3°3.596 68.1 12.5 66 11
2006-04-10 08:35:34 51°21.159 3°3.616 69 12.5 67 11
2006-04-10 08:35:40 51°21.168 3°3.647 68.8 12.5 66 11
2006-04-10 08:35:45 51°21.174 3°3.672 68.3 12.5 66 11
2006-04-10 08:35:50 51°21.181 3°3.698 67.9 12.4 66 11
2006-04-10 08:35:54 51°21.188 3°3.718 68.3 12.5 66 10.9
2006-04-10 08:36:00 51°21.195 3°3.749 67.8 12.5 67 10.8
2006-04-10 08:36:04 51°21.202 3°3.768 67.5 12.4 64 10.9
2006-04-10 08:36:10 51°21.211 3°3.798 67.5 12.5 66 10.9
2006-04-10 08:36:15 51°21.218 3°3.824 67.6 12.5 66 10.8
2006-04-10 08:36:20 51°21.225 3°3.849 67.7 12.6 65 10.9
2006-04-10 08:36:25 51°21.232 3°3.875 67.8 12.5 67 10.9
2006-04-10 08:36:30 51°21.239 3°3.9 68.2 12.5 66 11.1
2006-04-10 08:36:34 51°21.244 3°3.92 68.8 12.5 68 11.2
2006-04-10 08:36:40 51°21.252 3°3.952 68.2 12.5 68 11
2006-04-10 08:36:44 51°21.258 3°3.972 69 12.5 66 11.1
2006-04-10 08:36:49 51°21.264 3°3.998 68.3 12.5 68 11
2006-04-10 08:36:55 51°21.273 3°4.026 67.8 12.4 64 11.1
2006-04-10 08:37:00 51°21.28 3°4.052 67.9 12.4 66 11
2006-04-10 08:37:05 51°21.287 3°4.077 67.7 12.4 66 11.1
2006-04-10 08:37:10 51°21.294 3°4.102 67.6 12.4 68 10.9
2006-04-10 08:37:14 51°21.299 3°4.123 67.9 12.3 64 10.7
2006-04-10 08:37:20 51°21.307 3°4.152 68.2 12.2 66 10.9
2006-04-10 08:37:25 51°21.314 3°4.178 68.2 12.3 67 10.9
2006-04-10 08:37:30 51°21.321 3°4.202 68.8 12.3 69 11.1
2006-04-10 08:37:34 51°21.326 3°4.222 68.6 12.3 65 11.2
2006-04-10 08:37:40 51°21.334 3°4.253 68.6 12.2 68 11.1
2006-04-10 08:37:44 51°21.34 3°4.272 69.2 12.3 65 11.2
2006-04-10 08:37:50 51°21.347 3°4.303 68.8 12.3 69 11.3
2006-04-10 08:37:55 51°21.352 3°4.329 69.7 12.3 69 11.2
2006-04-10 08:38:00 51°21.359 3°4.354 70.8 12.4 70 11.1
2006-04-10 08:38:04 51°21.364 3°4.374 70.8 12.3 70 11.2
2006-04-10 08:38:10 51°21.37 3°4.406 71.4 12.3 71 11.1
2006-04-10 08:38:14 51°21.375 3°4.426 71.8 12.3 71 11.2
2006-04-10 08:38:20 51°21.381 3°4.458 71.8 12.3 71 11.1
2006-04-10 08:38:24 51°21.385 3°4.478 72.3 12.3 71 10.9
2006-04-10 08:38:30 51°21.392 3°4.509 72.8 12.4 71 11.1
2006-04-10 08:38:35 51°21.398 3°4.535 72.9 12.3 72 11.2
2006-04-10 08:38:40 51°21.403 3°4.561 72.3 12.3 72 11.2
2006-04-10 08:38:44 51°21.407 3°4.581 72.9 12.3 71 11.2
2006-04-10 08:38:50 51°21.413 3°4.613 73.5 12.4 73 11.3
2006-04-10 08:38:54 51°21.417 3°4.633 73.6 12.4 71 11.3
2006-04-10 08:39:00 51°21.423 3°4.666 73.3 12.3 75 11.3
2006-04-10 08:39:05 51°21.428 3°4.692 74.1 12.5 72 11.3
2006-04-10 08:39:10 51°21.433 3°4.718 74 12.4 73 11.4
2006-04-10 08:39:14 51°21.438 3°4.739 73.4 12.5 73 11.3
2006-04-10 08:39:20 51°21.443 3°4.77 73.4 12.3 73 11.3
2006-04-10 08:39:24 51°21.448 3°4.791 73.5 12.4 71 11.2
2006-04-10 08:39:30 51°21.455 3°4.822 72.6 12.4 73 11.4
2006-04-10 08:39:34 51°21.458 3°4.843 72.1 12.4 73 11.2
2006-04-10 08:39:40 51°21.465 3°4.875 73.8 12.5 75 11.2
2006-04-10 08:39:45 51°21.471 3°4.901 72.7 12.5 71 11.3
2006-04-10 08:39:50 51°21.476 3°4.927 73 12.3 73 11.3
2006-04-10 08:39:54 51°21.48 3°4.948 73.6 12.3 73 11.3
2006-04-10 08:40:00 51°21.487 3°4.98 73.3 12.6 73 11.3
2006-04-10 08:40:05 51°21.491 3°5.007 73.4 12.5 72 11.2
2006-04-10 08:40:10 51°21.496 3°5.033 73.7 12.5 71 11.2
2006-04-10 08:40:14 51°21.501 3°5.054 73.8 12.5 71 11.2
2006-04-10 08:40:18 51°21.505 3°5.075 73.8 12.4 72 11.4
2006-04-10 08:40:24 51°21.511 3°5.107 73.6 12.4 72 11.3
2006-04-10 08:40:30 51°21.518 3°5.138 74.3 12.4 72 11.4
2006-04-10 08:40:34 51°21.522 3°5.16 73.2 12.5 73 11.3
2006-04-10 08:40:40 51°21.529 3°5.19 73.1 12.4 69 11.5
2006-04-10 08:40:44 51°21.532 3°5.212 73.2 12.5 71 11.2
2006-04-10 08:40:50 51°21.539 3°5.243 73.2 12.4 70 11.2
2006-04-10 08:40:55 51°21.544 3°5.27 72.6 12.5 74 11.2
2006-04-10 08:41:00 51°21.55 3°5.296 73.3 12.4 69 11.3
2006-04-10 08:41:05 51°21.555 3°5.322 73.1 12.4 74 11.4
2006-04-10 08:41:10 51°21.561 3°5.349 73.9 12.5 70 11.3
2006-04-10 08:41:14 51°21.565 3°5.37 72.9 12.5 73 11.5
2006-04-10 08:41:20 51°21.572 3°5.401 72.9 12.4 71 11.4
2006-04-10 08:41:24 51°21.576 3°5.422 73.3 12.5 73 11.5
2006-04-10 08:41:30 51°21.583 3°5.453 73.7 12.5 72 11.5
2006-04-10 08:41:34 51°21.587 3°5.474 72.5 12.4 71 11.5
2006-04-10 08:41:40 51°21.594 3°5.505 73 12.3 71 11.5
2006-04-10 08:41:45 51°21.599 3°5.531 72.9 12.5 72 11.4
2006-04-10 08:41:50 51°21.605 3°5.558 73.4 12.6 72 11.4
2006-04-10 08:41:54 51°21.61 3°5.578 72.9 12.4 71 11.6
2006-04-10 08:42:00 51°21.615 3°5.61 72.5 12.2 73 11.4
2006-04-10 08:42:05 51°21.621 3°5.637 74.4 12.5 70 11.2
2006-04-10 08:42:10 51°21.627 3°5.661 72.9 12.4 71 11.4
2006-04-10 08:42:14 51°21.63 3°5.683 72 12.3 71 11.1
2006-04-10 08:42:20 51°21.638 3°5.713 73 12.4 69 11.3
2006-04-10 08:42:25 51°21.642 3°5.739 72.5 12.2 74 11.4
2006-04-10 08:42:30 51°21.647 3°5.766 73.8 12.2 72 11.3
2006-04-10 08:42:35 51°21.653 3°5.791 74.7 12.5 73 11.4
2006-04-10 08:42:40 51°21.659 3°5.818 72.4 12.4 71 11.4
2006-04-10 08:42:44 51°21.662 3°5.838 72.5 12.1 73 11.7
2006-04-10 08:42:50 51°21.669 3°5.869 73.4 12.2 70 11.4
2006-04-10 08:42:55 51°21.675 3°5.894 74 12.4 74 11.6
2006-04-10 08:43:00 51°21.679 3°5.921 73.3 12.2 72 11.6
2006-04-10 08:43:05 51°21.684 3°5.946 73.5 12.3 72 11.5
2006-04-10 08:43:10 51°21.69 3°5.973 73.5 12.3 71 11.4
2006-04-10 08:43:14 51°21.694 3°5.993 73.6 12.3 73 11.6
2006-04-10 08:43:20 51°21.7 3°6.026 73.6 12.4 72 11.4
2006-04-10 08:43:24 51°21.705 3°6.045 73.6 12.2 71 11.6
2006-04-10 08:43:28 51°21.708 3°6.066 73.8 12.2 72 11.5
2006-04-10 08:43:34 51°21.714 3°6.097 74.1 12.2 72 11.5
2006-04-10 08:43:40 51°21.721 3°6.128 73.4 12.3 69 11.6
2006-04-10 08:43:45 51°21.726 3°6.155 72.4 12.3 75 11.5
2006-04-10 08:43:50 51°21.731 3°6.18 73.8 12.3 71 11.5
2006-04-10 08:43:54 51°21.734 3°6.202 74.2 12.4 74 11.5
2006-04-10 08:44:00 51°21.74 3°6.234 75.4 12.4 74 11.5
2006-04-10 08:44:05 51°21.745 3°6.261 75.3 12.5 74 11.5
2006-04-10 08:44:10 51°21.75 3°6.286 75.5 12.5 74 11.7
2006-04-10 08:44:14 51°21.753 3°6.309 75.6 12.4 76 11.6
2006-04-10 08:44:19 51°21.758 3°6.334 77.3 12.5 73 11.7
2006-04-10 08:44:24 51°21.762 3°6.362 76.7 12.6 77 11.6
2006-04-10 08:44:30 51°21.767 3°6.394 77.3 12.4 75 11.8
2006-04-10 08:44:35 51°21.772 3°6.42 76.4 12.4 75 11.8
2006-04-10 08:44:40 51°21.776 3°6.448 76.7 12.5 75 11.7